Marys Home, Missouri
Current Conditions -  °F | °C
As of 8:15 PM on Saturday 22 Nov 2014 (Local Time) from KAIZ Reporting Station
Broken Clouds Broken Clouds  
Wind Chill: 54°   Ceiling: 1400
Heat Index: 54°   Visibility: 10mi
Dew Point: 48°   Wind: 8mph
Humidity: 82%   Direction: 160°SSE
Pressure: 29.86"   Gusts: NA
Location:  38.3538°N, 92.3679°W
Report Text: KAIZ 230215Z AUTO 16007KT 10SM BKN014 12/09 A2986 RMK AO1
Loading
Personal Weather Stations






























Interactive Weather Map New forecast layout! Learn more

10-Day Weather Forecast

Advertisements
Track Severe Weather on mobile